Time;durP1;ratioP1;P1;durP2;ratioP2;P2;SDS_P1;SDS_P2;PMS_P1;PMS_P2;Temp;Humidity;BMP_temperature;BMP_pressure;BME280_temperature;BME280_humidity;BME280_pressure;Samples;Min_cycle;Max_cycle;Signal;HPM_P1;HPM_P2
2022/12/28 00:01:21;;;;;;;15.48;6.90;;;;;;;2.58;82.52;101664.80;1750696;80;21752;-92
2022/12/28 00:03:48;;;;;;;17.32;6.90;;;;;;;2.67;82.60;101666.76;1747455;80;21013;-93
2022/12/28 00:06:15;;;;;;;15.95;6.87;;;;;;;2.77;82.67;101660.51;1752922;81;21785;-92
2022/12/28 00:08:42;;;;;;;14.53;7.40;;;;;;;2.80;82.61;101652.94;1747553;81;20996;-93
2022/12/28 00:11:12;;;;;;;16.45;7.22;;;;;;;2.94;82.51;101663.41;1754067;80;20995;-92
2022/12/28 00:13:39;;;;;;;18.17;7.50;;;;;;;3.03;82.50;101665.36;1765901;79;22583;-93
2022/12/28 00:16:09;;;;;;;14.55;6.70;;;;;;;3.11;82.41;101666.38;1735665;81;20954;-93
2022/12/28 00:18:36;;;;;;;19.87;7.17;;;;;;;3.19;82.33;101664.34;1744680;80;20985;-93
2022/12/28 00:21:03;;;;;;;19.27;7.83;;;;;;;3.24;82.28;101665.53;1765342;80;21011;-93
2022/12/28 00:23:30;;;;;;;14.03;6.92;;;;;;;3.33;82.22;101670.48;1745162;80;21020;-93
2022/12/28 00:26:11;;;;;;;17.32;7.72;;;;;;;3.40;82.11;101665.31;1733463;80;21787;-93
2022/12/28 00:28:38;;;;;;;14.25;7.72;;;;;;;3.45;81.95;101664.83;1734772;81;21515;-93
2022/12/28 00:31:05;;;;;;;16.12;7.22;;;;;;;3.46;81.74;101656.20;1751577;81;20985;-93
2022/12/28 00:33:32;;;;;;;18.87;8.15;;;;;;;3.49;81.68;101647.69;1731382;81;21875;-92
2022/12/28 00:35:59;;;;;;;18.92;7.62;;;;;;;3.49;81.57;101644.71;1739865;81;21023;-93
2022/12/28 00:38:30;;;;;;;17.60;8.28;;;;;;;3.49;81.46;101646.02;1733635;81;21770;-92
2022/12/28 00:40:57;;;;;;;19.98;8.00;;;;;;;3.48;81.40;101652.41;1716185;81;20960;-92
2022/12/28 00:43:24;;;;;;;17.73;7.62;;;;;;;3.47;81.33;101652.81;1750662;81;21042;-92
2022/12/28 00:45:51;;;;;;;17.87;8.43;;;;;;;3.50;81.36;101646.50;1771696;79;20986;-92
2022/12/28 00:48:17;;;;;;;17.82;7.62;;;;;;;3.49;81.18;101638.58;1720186;82;20988;-92
2022/12/28 00:50:44;;;;;;;18.30;7.75;;;;;;;3.46;81.04;101642.30;1769137;79;21810;-93
2022/12/28 00:53:11;;;;;;;18.40;8.38;;;;;;;3.40;80.86;101640.59;1763702;79;21012;-93
2022/12/28 00:55:38;;;;;;;17.95;7.03;;;;;;;3.31;80.78;101646.05;1773562;79;20990;-92
2022/12/28 00:58:06;;;;;;;17.52;8.00;;;;;;;3.25;80.82;101640.03;1763866;80;20968;-93
2022/12/28 01:00:33;;;;;;;15.20;7.00;;;;;;;3.21;80.89;101648.80;1754440;80;20947;-92
2022/12/28 01:03:00;;;;;;;15.55;7.47;;;;;;;3.21;80.98;101643.23;1768683;79;21720;-92
2022/12/28 01:05:27;;;;;;;16.27;7.83;;;;;;;3.23;81.06;101645.53;1780957;79;21501;-92
2022/12/28 01:07:54;;;;;;;13.32;7.95;;;;;;;3.25;81.12;101650.44;1766898;79;21009;-93
2022/12/28 01:10:20;;;;;;;13.80;7.83;;;;;;;3.29;81.21;101647.25;1775517;79;20976;-93
2022/12/28 01:12:47;;;;;;;22.20;7.53;;;;;;;3.36;81.28;101646.36;1783512;79;20968;-93
2022/12/28 01:15:14;;;;;;;18.00;8.15;;;;;;;3.41;81.20;101640.66;1778757;79;22379;-93
2022/12/28 01:17:41;;;;;;;15.90;7.35;;;;;;;3.44;81.10;101634.79;1789866;79;20936;-93
2022/12/28 01:20:08;;;;;;;20.60;7.75;;;;;;;3.48;81.06;101625.97;1757629;78;21058;-92
2022/12/28 01:22:35;;;;;;;17.82;8.05;;;;;;;3.50;80.97;101620.88;1771662;79;21020;-92
2022/12/28 01:25:02;;;;;;;14.33;6.80;;;;;;;3.51;80.84;101616.19;1765104;79;21103;-92
2022/12/28 01:27:29;;;;;;;15.93;7.30;;;;;;;3.47;80.64;101609.87;1714680;82;21863;-93
2022/12/28 01:29:55;;;;;;;15.08;6.65;;;;;;;3.38;80.41;101606.64;1755115;80;20972;-93
2022/12/28 01:32:23;;;;;;;15.75;7.40;;;;;;;3.27;80.30;101603.72;1760559;80;21003;-92
2022/12/28 01:34:49;;;;;;;14.50;7.20;;;;;;;3.20;80.27;101605.39;1719868;82;20983;-93
2022/12/28 01:37:16;;;;;;;21.10;7.33;;;;;;;3.10;80.22;101606.47;1754727;80;21030;-92
2022/12/28 01:39:43;;;;;;;19.02;8.13;;;;;;;2.99;80.22;101610.92;1746798;81;21450;-93
2022/12/28 01:42:16;;;;;;;21.10;8.13;;;;;;;2.89;80.28;101610.69;1754070;80;21558;-92
2022/12/28 01:44:46;;;;;;;18.00;9.03;;;;;;;2.86;80.45;101622.56;1716506;83;21064;-93
2022/12/28 01:47:25;;;;;;;19.67;8.43;;;;;;;2.87;80.72;101620.08;1770037;80;21876;-93
2022/12/28 01:50:08;;;;;;;23.35;8.48;;;;;;;2.91;80.88;101622.50;1765886;80;20981;-92
2022/12/28 01:52:42;;;;;;;18.37;8.37;;;;;;;2.96;81.01;101609.39;1767597;80;21716;-92
2022/12/28 01:55:31;;;;;;;16.57;6.95;;;;;;;2.98;80.87;101603.00;1763559;80;20996;-92
2022/12/28 01:58:05;;;;;;;17.15;7.80;;;;;;;2.78;80.71;101577.84;1770482;80;21078;-93
2022/12/28 02:00:32;;;;;;;22.20;7.58;;;;;;;2.94;80.75;101603.59;1767287;80;20973;-92
2022/12/28 02:03:06;;;;;;;18.23;7.15;;;;;;;2.95;80.83;101604.08;1773032;79;21021;-92
2022/12/28 02:05:37;;;;;;;19.37;7.80;;;;;;;3.01;80.95;101605.42;1769541;80;21716;-92
2022/12/28 02:08:08;;;;;;;19.25;7.92;;;;;;;3.10;81.02;101605.16;1771979;80;20961;-92
2022/12/28 02:10:35;;;;;;;18.52;6.90;;;;;;;3.17;80.98;101604.77;1741232;80;20998;-92
2022/12/28 02:13:02;;;;;;;11.95;6.78;;;;;;;3.24;81.01;101600.48;1767902;80;20950;-91
2022/12/28 02:15:29;;;;;;;18.60;7.17;;;;;;;3.31;80.91;101602.70;1771937;80;20980;-91
2022/12/28 02:17:55;;;;;;;19.12;7.22;;;;;;;3.38;80.85;101600.52;1766152;80;22303;-92
2022/12/28 02:20:23;;;;;;;20.02;7.87;;;;;;;3.41;80.80;101591.62;1762200;80;21855;-92
2022/12/28 02:23:21;;;;;;;16.55;7.42;;;;;;;3.46;80.76;101596.34;1768592;80;21029;-92
2022/12/28 02:26:14;;;;;;;12.28;6.80;;;;;;;3.51;80.72;101597.97;1780632;78;20994;-92
2022/12/28 02:29:18;;;;;;;14.58;7.05;;;;;;;3.55;80.57;101598.67;1787295;78;21011;-93
2022/12/28 02:32:21;;;;;;;17.85;7.78;;;;;;;3.55;80.51;101598.67;1787007;78;22000;-91
2022/12/28 02:35:11;;;;;;;13.62;6.20;;;;;;;3.59;80.46;101593.27;1795107;78;21430;-93
2022/12/28 02:37:53;;;;;;;13.53;6.08;;;;;;;3.58;80.38;101588.44;1798572;78;21886;-93
2022/12/28 02:40:24;;;;;;;14.05;6.25;;;;;;;3.59;80.36;101589.36;1785950;78;21572;-93
2022/12/28 02:42:52;;;;;;;16.60;6.30;;;;;;;3.62;80.42;101581.36;1784371;78;21077;-93
2022/12/28 02:51:39;;;;;;;18.15;5.00;;;;;;;3.70;80.27;101572.34;1792428;78;21051;-93
2022/12/28 02:57:46;;;;;;;14.85;5.67;;;;;;;3.76;80.14;101572.25;1785512;78;21085;-92
2022/12/28 03:00:18;;;;;;;13.10;5.12;;;;;;;3.75;80.01;101575.23;1782871;78;22383;-92
2022/12/28 03:03:20;;;;;;;14.35;4.95;;;;;;;3.71;79.83;101569.33;1789335;78;20980;-92
2022/12/28 03:09:24;;;;;;;12.95;5.50;;;;;;;3.57;79.69;101570.14;1792697;78;21008;-92
2022/12/28 03:12:05;;;;;;;17.07;5.58;;;;;;;3.52;79.68;101567.22;1771455;78;20977;-91
2022/12/28 03:14:46;;;;;;;17.67;4.92;;;;;;;3.49;79.67;101562.72;1791984;78;21684;-92
2022/12/28 03:31:12;;;;;;;16.32;5.10;;;;;;;3.55;79.32;101530.98;1744196;80;21050;-93
2022/12/28 03:33:46;;;;;;;15.45;5.50;;;;;;;3.49;79.10;101527.58;1746318;80;21857;-92
2022/12/28 03:36:27;;;;;;;13.10;5.33;;;;;;;3.40;79.02;101521.77;1728997;81;21028;-92
2022/12/28 03:39:04;;;;;;;15.00;5.00;;;;;;;3.30;78.97;101515.05;1756646;80;21857;-91
2022/12/28 03:41:38;;;;;;;12.65;4.60;;;;;;;3.22;78.88;101521.84;1755148;80;21699;-91
2022/12/28 03:44:12;;;;;;;13.10;4.53;;;;;;;3.08;78.78;101514.42;1752453;80;21020;-92
2022/12/28 03:46:47;;;;;;;18.40;5.35;;;;;;;2.98;78.80;101519.78;1748936;81;21071;-93
2022/12/28 03:49:13;;;;;;;17.95;4.65;;;;;;;2.90;78.98;101512.77;1750777;80;21012;-93
2022/12/28 03:51:40;;;;;;;14.95;4.70;;;;;;;2.81;78.93;101508.23;1754017;80;20996;-92
2022/12/28 03:54:07;;;;;;;15.63;5.17;;;;;;;2.72;78.95;101503.30;1752710;80;21724;-92
2022/12/28 03:56:33;;;;;;;19.20;5.40;;;;;;;2.64;78.99;101500.17;1754422;80;21062;-93
2022/12/28 03:59:00;;;;;;;14.23;5.15;;;;;;;2.60;79.13;101501.17;1743972;80;21385;-93
2022/12/28 04:01:27;;;;;;;13.85;4.97;;;;;;;2.56;79.18;101505.25;1753815;80;21008;-93
2022/12/28 04:03:54;;;;;;;12.63;4.67;;;;;;;2.55;79.31;101501.23;1750688;80;20999;-93
2022/12/28 04:06:21;;;;;;;19.52;5.12;;;;;;;2.58;79.51;101502.36;1743899;80;21973;-92
2022/12/28 04:08:47;;;;;;;16.27;4.37;;;;;;;2.63;79.57;101496.19;1746198;81;21008;-92
2022/12/28 04:11:14;;;;;;;13.55;4.35;;;;;;;2.70;79.61;101495.41;1748983;81;21834;-93
2022/12/28 04:13:41;;;;;;;18.25;4.97;;;;;;;2.73;79.61;101483.91;1754670;80;20999;-92
2022/12/28 04:16:12;;;;;;;14.35;4.45;;;;;;;2.78;79.54;101495.94;1730977;81;21562;-93
2022/12/28 04:18:38;;;;;;;15.25;4.00;;;;;;;2.81;79.49;101496.53;1770526;79;21667;-93
2022/12/28 04:21:05;;;;;;;12.15;3.67;;;;;;;2.81;79.37;101487.44;1797013;79;21003;-93
2022/12/28 04:23:32;;;;;;;18.92;4.83;;;;;;;2.74;79.11;101479.63;1796990;79;21780;-93
2022/12/28 04:26:13;;;;;;;14.55;4.50;;;;;;;2.65;79.05;101479.89;1803246;78;20996;-92
2022/12/28 04:28:45;;;;;;;12.50;4.20;;;;;;;2.61;79.09;101471.77;1781229;78;20979;-92
2022/12/28 04:31:13;;;;;;;15.50;4.60;;;;;;;2.52;79.05;101475.95;1742377;80;22059;-92
2022/12/28 04:33:39;;;;;;;7.42;3.58;;;;;;;2.49;79.22;101472.72;1759514;80;21378;-93
2022/12/28 04:36:15;;;;;;;10.00;3.70;;;;;;;2.53;79.31;101469.94;1748041;80;21048;-93
2022/12/28 04:38:43;;;;;;;16.50;3.98;;;;;;;2.41;79.24;101446.63;1737077;81;20991;-92
2022/12/28 04:41:09;;;;;;;14.35;3.90;;;;;;;2.46;79.11;101458.23;1760860;80;21102;-92
2022/12/28 04:43:36;;;;;;;10.82;3.95;;;;;;;2.39;79.04;101461.20;1762430;80;21819;-92
2022/12/28 04:46:05;;;;;;;13.60;4.40;;;;;;;2.31;79.04;101457.19;1765247;80;21156;-92
2022/12/28 04:48:32;;;;;;;11.78;4.35;;;;;;;2.22;79.07;101456.55;1759309;80;21027;-92
2022/12/28 04:51:01;;;;;;;17.45;5.00;;;;;;;2.13;79.10;101458.98;1769405;80;20957;-93
2022/12/28 04:53:28;;;;;;;12.70;4.70;;;;;;;2.07;79.23;101447.28;1765091;80;21015;-92
2022/12/28 04:55:57;;;;;;;10.32;4.67;;;;;;;1.99;79.28;101441.92;1765989;80;21991;-92
2022/12/28 04:58:23;;;;;;;12.55;5.03;;;;;;;1.93;79.39;101432.01;1765999;80;20949;-93
2022/12/28 05:00:50;;;;;;;12.18;4.85;;;;;;;1.87;79.46;101432.88;1765249;80;21014;-94
2022/12/28 05:03:17;;;;;;;16.35;6.03;;;;;;;1.82;79.53;101425.16;1766824;80;21064;-92
2022/12/28 05:05:43;;;;;;;20.37;7.08;;;;;;;1.77;79.60;101427.44;1762610;80;21028;-93
2022/12/28 05:08:10;;;;;;;22.02;6.53;;;;;;;1.73;79.65;101422.83;1765334;80;21789;-93
2022/12/28 05:10:37;;;;;;;21.20;8.15;;;;;;;1.68;79.70;101421.59;1766350;79;21449;-91
2022/12/28 05:13:03;;;;;;;17.90;6.80;;;;;;;1.65;79.81;101417.47;1771314;79;20993;-93
2022/12/28 05:15:30;;;;;;;19.60;6.58;;;;;;;1.61;79.87;101413.75;1760425;79;20986;-93
2022/12/28 05:17:57;;;;;;;18.10;6.85;;;;;;;1.60;79.94;101408.07;1755081;80;21084;-93
2022/12/28 05:20:23;;;;;;;14.90;6.35;;;;;;;1.59;80.03;101410.14;1754398;80;22653;-92
2022/12/28 05:22:50;;;;;;;13.03;5.85;;;;;;;1.55;80.10;101396.05;1761424;79;20924;-92
2022/12/28 05:25:17;;;;;;;15.72;5.72;;;;;;;1.54;80.22;101402.45;1755816;79;21171;-90
2022/12/28 05:27:43;;;;;;;16.12;6.03;;;;;;;1.58;80.42;101397.98;1761989;79;21027;-90
2022/12/28 05:30:11;;;;;;;17.20;6.33;;;;;;;1.62;80.60;101394.81;1753915;79;21117;-90
2022/12/28 05:32:37;;;;;;;17.45;6.00;;;;;;;1.69;80.78;101399.64;1767446;79;21743;-90
2022/12/28 05:35:05;;;;;;;16.20;6.47;;;;;;;1.82;80.99;101394.93;1760610;79;20964;-90
2022/12/28 05:37:32;;;;;;;13.83;6.80;;;;;;;1.94;81.11;101395.77;1764657;79;20975;-90
2022/12/28 05:39:58;;;;;;;15.48;7.08;;;;;;;2.07;81.13;101394.94;1762675;79;21002;-90
2022/12/28 05:42:25;;;;;;;14.68;6.90;;;;;;;2.17;81.09;101389.97;1757733;79;20956;-90
2022/12/28 05:44:52;;;;;;;19.57;7.62;;;;;;;2.27;81.03;101384.63;1754731;79;22939;-89
2022/12/28 05:47:18;;;;;;;11.90;7.22;;;;;;;2.33;81.00;101383.75;1759873;79;21028;-90
2022/12/28 05:49:46;;;;;;;26.62;8.78;;;;;;;2.44;81.05;101384.86;1741576;79;21048;-89
2022/12/28 05:52:12;;;;;;;19.00;8.53;;;;;;;2.49;80.95;101371.78;1751609;79;22272;-90
2022/12/28 05:54:39;;;;;;;23.55;8.88;;;;;;;2.54;80.93;101365.20;1747411;79;21047;-92
2022/12/28 05:57:06;;;;;;;22.05;8.88;;;;;;;2.56;80.84;101368.80;1744528;79;21727;-92
2022/12/28 05:59:32;;;;;;;19.82;9.55;;;;;;;2.58;80.84;101359.82;1761814;79;21529;-87
2022/12/28 06:01:59;;;;;;;20.45;9.98;;;;;;;2.60;80.89;101356.52;1766615;79;21585;-88
2022/12/28 06:04:26;;;;;;;19.27;9.80;;;;;;;2.64;80.88;101353.72;1756673;79;21021;-88
2022/12/28 06:06:53;;;;;;;27.22;11.00;;;;;;;2.66;80.76;101341.73;1756784;79;21022;-94
2022/12/28 06:09:20;;;;;;;18.23;9.23;;;;;;;2.64;80.70;101342.02;1749097;78;22360;-93
2022/12/28 06:11:47;;;;;;;21.15;10.82;;;;;;;2.61;80.58;101336.61;1749867;79;20991;-93
2022/12/28 06:14:13;;;;;;;24.70;10.48;;;;;;;2.57;80.59;101330.31;1742014;79;20959;-93
2022/12/28 06:16:41;;;;;;;22.48;11.35;;;;;;;2.56;80.65;101329.83;1740181;79;21134;-92
2022/12/28 06:19:09;;;;;;;21.68;10.20;;;;;;;2.58;80.77;101322.14;1771536;79;21016;-93
2022/12/28 06:21:38;;;;;;;17.73;10.03;;;;;;;2.57;80.73;101326.41;1751709;79;22537;-92
2022/12/28 06:24:05;;;;;;;20.65;11.48;;;;;;;2.58;80.79;101314.34;1755151;80;21013;-93
2022/12/28 06:26:33;;;;;;;18.00;11.45;;;;;;;2.59;80.84;101314.45;1753930;79;21497;-92
2022/12/28 06:29:03;;;;;;;20.43;11.65;;;;;;;2.61;80.83;101314.52;1748643;81;21094;-92
2022/12/28 06:31:33;;;;;;;22.80;11.40;;;;;;;2.62;80.86;101312.03;1792192;78;21067;-92
2022/12/28 06:34:00;;;;;;;16.42;11.10;;;;;;;2.64;80.84;101311.73;1783776;77;22592;-92
2022/12/28 06:36:30;;;;;;;23.95;11.90;;;;;;;2.63;80.80;101312.55;1795801;77;21525;-92
2022/12/28 06:38:58;;;;;;;22.07;12.75;;;;;;;2.62;80.74;101315.03;1788429;78;20985;-92
2022/12/28 06:41:25;;;;;;;24.35;13.13;;;;;;;2.62;80.80;101313.73;1766748;79;21043;-92
2022/12/28 06:43:52;;;;;;;19.77;13.43;;;;;;;2.61;80.88;101311.55;1768646;80;21044;-93
2022/12/28 06:46:19;;;;;;;24.65;14.33;;;;;;;2.61;80.79;101302.83;1783943;80;21675;-91
2022/12/28 06:48:46;;;;;;;26.75;14.40;;;;;;;2.59;80.83;101301.45;1776932;79;21432;-93
2022/12/28 06:51:16;;;;;;;23.12;14.68;;;;;;;2.59;80.85;101300.53;1767109;79;21010;-93
2022/12/28 06:53:43;;;;;;;27.58;15.43;;;;;;;2.57;80.87;101300.83;1753852;79;21026;-93
2022/12/28 06:56:17;;;;;;;21.40;12.68;;;;;;;2.56;80.90;101293.44;1768945;80;21094;-92
2022/12/28 06:58:44;;;;;;;21.97;13.50;;;;;;;2.59;81.01;101292.73;1759326;79;21737;-93
2022/12/28 07:01:25;;;;;;;20.02;13.22;;;;;;;2.61;81.00;101295.95;1753196;79;21003;-94
2022/12/28 07:03:53;;;;;;;22.82;13.93;;;;;;;2.62;80.99;101300.74;1759064;79;20980;-93
2022/12/28 07:06:22;;;;;;;25.30;13.55;;;;;;;2.64;81.07;101295.24;1761656;79;21011;-93
2022/12/28 07:08:49;;;;;;;28.40;14.43;;;;;;;2.68;81.12;101294.26;1767640;80;21038;-93
2022/12/28 07:11:18;;;;;;;22.17;13.20;;;;;;;2.73;81.10;101290.64;1771649;79;22959;-93
2022/12/28 07:13:45;;;;;;;24.07;14.45;;;;;;;2.75;81.07;101290.75;1762311;79;21209;-93
2022/12/28 07:16:15;;;;;;;22.13;14.18;;;;;;;2.77;81.04;101287.44;1774651;80;21540;-93
2022/12/28 07:18:42;;;;;;;22.62;15.13;;;;;;;2.81;81.02;101276.84;1730471;81;21910;-92
2022/12/28 07:21:27;;;;;;;25.25;14.68;;;;;;;2.84;81.01;101271.85;1789407;78;21305;-93
2022/12/28 07:23:55;;;;;;;26.25;14.98;;;;;;;2.88;80.98;101272.54;1797826;78;22253;-93
2022/12/28 07:26:25;;;;;;;27.30;15.85;;;;;;;2.90;80.99;101269.23;1792135;78;20858;-93
2022/12/28 07:28:56;;;;;;;26.62;15.48;;;;;;;2.94;80.96;101268.13;1784475;79;21451;-93
2022/12/28 07:31:25;;;;;;;24.67;15.93;;;;;;;2.95;80.91;101259.14;1790365;79;20955;-93
2022/12/28 07:33:52;;;;;;;22.17;14.58;;;;;;;2.98;80.89;101262.32;1794150;79;21486;-93
2022/12/28 07:36:19;;;;;;;24.67;14.25;;;;;;;3.00;80.92;101263.31;1785575;79;21931;-93
2022/12/28 07:38:46;;;;;;;25.20;14.18;;;;;;;3.02;80.87;101263.00;1789914;79;20939;-93
2022/12/28 07:41:19;;;;;;;22.75;13.60;;;;;;;3.03;80.86;101270.02;1781722;79;21003;-93
2022/12/28 07:43:46;;;;;;;21.02;13.03;;;;;;;3.06;80.83;101271.50;1755600;80;21543;-93
2022/12/28 07:46:16;;;;;;;26.15;14.23;;;;;;;3.11;80.88;101264.89;1758077;81;21016;-93
2022/12/28 07:48:43;;;;;;;22.37;13.85;;;;;;;3.15;80.91;101265.58;1789341;79;21766;-94
2022/12/28 07:51:22;;;;;;;24.12;13.65;;;;;;;3.21;80.92;101263.39;1784284;79;20952;-93
2022/12/28 07:53:51;;;;;;;17.32;12.70;;;;;;;3.26;80.83;101261.95;1756226;79;21042;-93
2022/12/28 07:56:17;;;;;;;19.35;13.40;;;;;;;3.32;80.80;101253.63;1795329;79;20970;-93
2022/12/28 07:58:54;;;;;;;21.85;13.88;;;;;;;3.34;80.70;101241.64;1777667;79;21307;-94
2022/12/28 08:01:22;;;;;;;17.92;12.70;;;;;;;3.40;80.70;101239.41;1780835;79;21720;-93
2022/12/28 08:03:55;;;;;;;25.43;14.13;;;;;;;3.42;80.58;101226.50;1789167;79;21411;-93
2022/12/28 08:06:22;;;;;;;21.93;14.87;;;;;;;3.45;80.51;101221.45;1769901;79;29520;-91
2022/12/28 08:08:54;;;;;;;18.98;13.58;;;;;;;3.48;80.48;101222.95;1775862;80;21122;-90
2022/12/28 08:11:23;;;;;;;21.75;13.58;;;;;;;3.47;80.35;101221.14;1779456;79;21812;-90
2022/12/28 08:13:51;;;;;;;20.30;12.58;;;;;;;3.44;80.34;101220.56;1776110;79;21737;-90
2022/12/28 08:16:18;;;;;;;19.75;13.45;;;;;;;3.46;80.35;101211.56;1782972;79;21413;-91
2022/12/28 08:18:46;;;;;;;21.85;14.28;;;;;;;3.47;80.38;101208.13;1776652;79;21473;-92
2022/12/28 08:21:18;;;;;;;22.90;13.10;;;;;;;3.49;80.32;101208.74;1781439;79;21030;-91
2022/12/28 08:23:45;;;;;;;17.27;12.67;;;;;;;3.50;80.39;101204.02;1783038;79;21047;-91
2022/12/28 08:26:28;;;;;;;18.25;13.00;;;;;;;3.55;80.26;101205.61;1784912;78;21733;-90
2022/12/28 08:28:57;;;;;;;22.58;15.15;;;;;;;3.56;80.25;101202.59;1778087;78;21486;-92
2022/12/28 08:31:30;;;;;;;21.33;13.48;;;;;;;3.57;80.19;101205.30;1780094;78;21435;-92
2022/12/28 08:33:58;;;;;;;25.48;15.18;;;;;;;3.61;80.21;101207.27;1789161;78;21356;-92
2022/12/28 08:36:25;;;;;;;20.92;14.33;;;;;;;3.66;80.24;101208.84;1776257;78;22006;-92
2022/12/28 08:38:51;;;;;;;19.07;13.95;;;;;;;3.70;80.19;101204.34;1784125;78;21729;-92
2022/12/28 08:41:20;;;;;;;24.75;14.45;;;;;;;3.74;80.14;101202.82;1798537;78;21007;-92
2022/12/28 08:43:47;;;;;;;19.17;14.47;;;;;;;3.76;80.08;101217.71;1789903;78;21844;-92
2022/12/28 08:46:21;;;;;;;19.12;13.55;;;;;;;3.79;80.08;101207.88;1783356;78;21650;-92
2022/12/28 08:48:49;;;;;;;22.45;15.10;;;;;;;3.77;79.96;101201.68;1698134;81;20977;-92
2022/12/28 08:51:23;;;;;;;24.75;16.25;;;;;;;3.76;79.94;101202.50;1764947;80;21893;-92
2022/12/28 08:53:50;;;;;;;25.90;16.62;;;;;;;3.74;79.89;101198.50;1757818;80;21627;-93
2022/12/28 08:56:19;;;;;;;22.58;15.03;;;;;;;3.75;80.00;101187.26;1770701;79;21543;-92
2022/12/28 08:58:46;;;;;;;21.62;14.70;;;;;;;3.78;80.04;101193.08;1766688;79;21535;-92
2022/12/28 09:01:16;;;;;;;24.63;15.23;;;;;;;3.79;80.03;101190.56;1779375;79;21098;-92
2022/12/28 09:03:45;;;;;;;26.37;15.48;;;;;;;3.83;80.03;101189.02;1774509;79;22417;-92
2022/12/28 09:06:14;;;;;;;22.42;15.05;;;;;;;3.85;80.07;101180.92;1777427;79;21324;-92
2022/12/28 09:08:41;;;;;;;22.52;15.05;;;;;;;3.87;80.06;101175.39;1772211;79;21003;-92
2022/12/28 09:11:10;;;;;;;24.50;16.67;;;;;;;3.86;79.98;101187.91;1765964;79;21377;-92
2022/12/28 09:13:37;;;;;;;25.10;16.42;;;;;;;3.85;79.98;101181.81;1773846;79;21031;-92
2022/12/28 09:16:10;;;;;;;25.82;17.52;;;;;;;3.88;80.09;101180.66;1770780;79;21706;-92
2022/12/28 09:18:37;;;;;;;25.50;17.82;;;;;;;3.89;80.08;101176.37;1784846;79;20961;-91
2022/12/28 09:21:12;;;;;;;24.98;16.12;;;;;;;3.89;80.01;101185.49;1776784;79;20989;-93
2022/12/28 09:23:39;;;;;;;30.27;18.27;;;;;;;3.88;80.11;101175.45;1781513;79;20952;-92
2022/12/28 09:26:10;;;;;;;34.30;18.25;;;;;;;3.91;80.14;101173.45;1776979;79;21012;-92
2022/12/28 09:28:37;;;;;;;29.23;17.98;;;;;;;3.93;80.12;101173.14;1786403;78;21706;-93
2022/12/28 09:31:07;;;;;;;25.95;15.90;;;;;;;3.94;80.15;101176.25;1781600;79;20963;-92
2022/12/28 09:36:19;;;;;;;27.90;17.75;;;;;;;3.97;80.11;101165.10;1777485;79;21067;-92
2022/12/28 09:38:46;;;;;;;32.03;21.17;;;;;;;3.95;80.01;101161.09;1778032;79;21019;-92
2022/12/28 09:41:42;;;;;;;28.38;17.98;;;;;;;3.94;80.12;101154.11;1780802;79;21674;-92
2022/12/28 09:44:46;;;;;;;34.55;22.22;;;;;;;3.97;80.22;101151.66;1776190;79;20999;-92
2022/12/28 09:47:28;;;;;;;;;;;;;;;4.03;80.21;101140.28;1779566;79;21167;-92
2022/12/28 09:50:12;;;;;;;28.70;19.37;;;;;;;4.06;80.07;101122.24;1772136;79;20458;-92
2022/12/28 09:53:06;;;;;;;29.75;17.10;;;;;;;4.09;80.15;101113.69;1763683;79;20976;-92
2022/12/28 09:55:37;;;;;;;27.77;18.87;;;;;;;4.14;80.14;101099.64;1776376;79;21728;-92
2022/12/28 09:58:13;;;;;;;31.25;18.60;;;;;;;4.13;79.95;101091.31;1779989;79;21031;-93
2022/12/28 10:00:56;;;;;;;25.10;16.30;;;;;;;4.16;80.05;101084.98;1770195;79;21034;-93
2022/12/28 10:03:43;;;;;;;24.03;16.40;;;;;;;4.18;80.02;101066.43;1773213;79;20964;-92
2022/12/28 10:06:15;;;;;;;25.20;15.40;;;;;;;4.21;79.98;101078.34;1771719;79;21189;-92
2022/12/28 10:08:48;;;;;;;33.88;21.57;;;;;;;4.21;79.81;101075.31;1782039;79;21656;-92
2022/12/28 10:11:25;;;;;;;23.92;15.95;;;;;;;4.22;79.90;101061.88;1777589;79;21329;-92
2022/12/28 10:13:57;;;;;;;23.12;14.00;;;;;;;4.26;79.90;101063.45;1781357;79;20975;-92
2022/12/28 10:16:26;;;;;;;24.92;13.48;;;;;;;4.28;79.76;101050.09;1776899;79;20960;-92
2022/12/28 10:18:53;;;;;;;25.68;13.28;;;;;;;4.29;79.73;101040.56;1782831;79;21004;-92
2022/12/28 10:21:21;;;;;;;20.90;12.47;;;;;;;4.31;79.71;101027.62;1784351;79;21733;-93
2022/12/28 10:23:50;;;;;;;22.52;13.28;;;;;;;4.33;79.71;101014.27;1776587;79;21639;-93
2022/12/28 10:26:17;;;;;;;24.07;14.75;;;;;;;4.36;79.63;101010.53;1771961;79;21029;-93
2022/12/28 10:28:50;;;;;;;21.05;13.90;;;;;;;4.38;79.60;101001.97;1800164;78;21110;-93
2022/12/28 10:31:17;;;;;;;21.07;13.53;;;;;;;4.41;79.58;100990.80;1800075;78;21412;-92
2022/12/28 10:33:53;;;;;;;26.65;17.70;;;;;;;4.43;79.54;100974.45;1703597;80;22691;-93
2022/12/28 10:36:20;;;;;;;23.02;14.30;;;;;;;4.47;79.49;100980.31;1753762;80;21023;-92
2022/12/28 10:38:53;;;;;;;19.30;13.48;;;;;;;4.50;79.33;100985.20;1761974;80;21052;-93
2022/12/28 10:41:20;;;;;;;24.27;13.83;;;;;;;4.48;79.27;100985.11;1767616;79;20973;-92
2022/12/28 10:43:51;;;;;;;18.77;12.53;;;;;;;4.49;79.26;100981.70;1759177;80;20998;-93
2022/12/28 10:46:22;;;;;;;19.10;12.30;;;;;;;4.51;79.19;100972.66;1766596;80;22512;-92
2022/12/28 10:48:53;;;;;;;21.40;11.25;;;;;;;4.51;79.16;100981.79;1758233;79;20983;-92
2022/12/28 10:51:27;;;;;;;21.12;11.22;;;;;;;4.54;79.18;100983.23;1755781;79;21004;-92
2022/12/28 10:53:55;;;;;;;21.77;11.77;;;;;;;4.52;79.04;100981.84;1762835;79;21000;-92
2022/12/28 10:56:32;;;;;;;20.90;11.95;;;;;;;4.51;78.98;100985.70;1758351;79;21042;-92
2022/12/28 10:59:21;;;;;;;23.12;12.47;;;;;;;4.46;78.91;100975.02;1768382;79;20924;-92
2022/12/28 11:01:47;;;;;;;25.17;14.40;;;;;;;4.45;78.96;100971.52;1754074;80;20997;-92
2022/12/28 11:04:24;;;;;;;26.25;13.15;;;;;;;4.43;78.88;100966.63;1760528;79;21449;-92
2022/12/28 11:06:55;;;;;;;20.15;12.00;;;;;;;4.41;78.87;100961.75;1755902;79;20997;-92
2022/12/28 11:09:28;;;;;;;21.48;12.70;;;;;;;4.45;78.96;100949.36;1752245;79;21093;-92
2022/12/28 11:12:17;;;;;;;25.25;12.45;;;;;;;4.47;78.99;100941.21;1764276;79;21735;-92
2022/12/28 11:14:44;;;;;;;19.05;11.30;;;;;;;4.55;79.00;100939.00;1770994;79;20959;-92
2022/12/28 11:17:27;;;;;;;20.50;12.50;;;;;;;4.61;78.93;100935.82;1752792;79;21500;-92
2022/12/28 11:19:57;;;;;;;18.85;11.25;;;;;;;4.64;78.78;100933.38;1758281;79;21086;-93
2022/12/28 11:22:26;;;;;;;18.87;11.40;;;;;;;4.66;78.71;100931.75;1748612;79;21435;-92
2022/12/28 11:24:53;;;;;;;19.90;12.25;;;;;;;4.67;78.63;100938.35;1733842;81;21760;-92
2022/12/28 11:27:21;;;;;;;21.73;11.63;;;;;;;4.70;78.66;100945.84;1753498;79;21048;-92
2022/12/28 11:29:54;;;;;;;17.98;9.93;;;;;;;4.71;78.59;100928.05;1747505;80;21009;-92
2022/12/28 11:32:25;;;;;;;20.45;9.78;;;;;;;4.76;78.65;100932.69;1746865;80;21311;-92
2022/12/28 11:34:52;;;;;;;15.32;9.00;;;;;;;4.79;78.54;100917.21;1747812;80;21526;-91
2022/12/28 11:37:19;;;;;;;18.00;9.40;;;;;;;4.86;78.52;100924.53;1740939;80;21718;-91
2022/12/28 11:40:00;;;;;;;18.12;8.98;;;;;;;4.93;78.50;100924.84;1738750;80;21015;-91
2022/12/28 11:42:41;;;;;;;17.75;9.18;;;;;;;4.97;78.36;100908.09;1755435;80;21034;-91
2022/12/28 11:45:16;;;;;;;16.77;8.85;;;;;;;5.04;78.31;100903.67;1748147;80;21003;-90
2022/12/28 11:47:44;;;;;;;15.28;8.50;;;;;;;5.15;78.34;100896.81;1739801;82;21416;-90
2022/12/28 11:50:40;;;;;;;15.30;8.95;;;;;;;5.24;78.32;100885.52;1745420;80;22625;-94
2022/12/28 11:53:35;;;;;;;16.85;9.33;;;;;;;5.30;78.07;100892.33;1739874;80;20992;-92
2022/12/28 11:56:08;;;;;;;;;;;;;;;5.36;77.89;100880.87;1753232;80;21363;-91
2022/12/28 11:58:42;;;;;;;13.43;7.78;;;;;;;5.45;77.87;100872.59;1742135;80;21245;-92
2022/12/28 12:01:35;;;;;;;16.90;8.00;;;;;;;5.54;77.79;100873.45;1743919;80;21043;-92
2022/12/28 12:04:10;;;;;;;24.30;14.07;;;;;;;5.59;77.77;100870.23;1755452;80;21740;-92
2022/12/28 12:06:47;;;;;;;17.98;10.82;;;;;;;5.67;77.54;100869.67;1742518;80;21349;-91
2022/12/28 12:09:29;;;;;;;15.40;9.95;;;;;;;5.67;77.39;100859.23;1741534;80;21070;-92